sensor_id;sensor_type;location;lat;lon;timestamp;temperature;humidity
78463;SHT31;67756;51.982;5.648;2023-12-14T00:02:13;10.9;68.2
78463;SHT31;67756;51.982;5.648;2023-12-14T00:04:42;10.8;68.8
78463;SHT31;67756;51.982;5.648;2023-12-14T00:07:11;10.8;68.4
78463;SHT31;67756;51.982;5.648;2023-12-14T00:09:40;10.8;68.4
78463;SHT31;67756;51.982;5.648;2023-12-14T00:12:09;10.7;68.7
78463;SHT31;67756;51.982;5.648;2023-12-14T00:14:38;10.7;68.7
78463;SHT31;67756;51.982;5.648;2023-12-14T00:17:06;10.6;68.7
78463;SHT31;67756;51.982;5.648;2023-12-14T00:19:35;10.5;68.9
78463;SHT31;67756;51.982;5.648;2023-12-14T00:22:03;10.5;69.0
78463;SHT31;67756;51.982;5.648;2023-12-14T00:24:32;10.4;69.1
78463;SHT31;67756;51.982;5.648;2023-12-14T00:27:00;10.3;69.3
78463;SHT31;67756;51.982;5.648;2023-12-14T00:29:29;10.3;70.2
78463;SHT31;67756;51.982;5.648;2023-12-14T00:31:57;10.2;70.5
78463;SHT31;67756;51.982;5.648;2023-12-14T00:34:26;10.2;70.3
78463;SHT31;67756;51.982;5.648;2023-12-14T00:36:54;10.2;69.9
78463;SHT31;67756;51.982;5.648;2023-12-14T00:39:23;10.2;70.2
78463;SHT31;67756;51.982;5.648;2023-12-14T00:41:51;10.2;70.1
78463;SHT31;67756;51.982;5.648;2023-12-14T00:44:20;10.2;69.9
78463;SHT31;67756;51.982;5.648;2023-12-14T00:46:49;10.2;69.5
78463;SHT31;67756;51.982;5.648;2023-12-14T00:49:17;10.2;69.4
78463;SHT31;67756;51.982;5.648;2023-12-14T00:51:46;10.2;69.4
78463;SHT31;67756;51.982;5.648;2023-12-14T00:54:14;10.1;68.8
78463;SHT31;67756;51.982;5.648;2023-12-14T00:56:45;10.1;69.4
78463;SHT31;67756;51.982;5.648;2023-12-14T00:59:13;10.1;69.6
78463;SHT31;67756;51.982;5.648;2023-12-14T01:01:42;10.0;69.4
78463;SHT31;67756;51.982;5.648;2023-12-14T01:04:10;10.0;69.9
78463;SHT31;67756;51.982;5.648;2023-12-14T01:06:39;10.0;69.0
78463;SHT31;67756;51.982;5.648;2023-12-14T01:09:07;10.0;69.8
78463;SHT31;67756;51.982;5.648;2023-12-14T01:11:36;9.9;69.5
78463;SHT31;67756;51.982;5.648;2023-12-14T01:14:05;9.9;70.1
78463;SHT31;67756;51.982;5.648;2023-12-14T01:16:33;9.9;69.7
78463;SHT31;67756;51.982;5.648;2023-12-14T01:19:02;9.9;69.7
78463;SHT31;67756;51.982;5.648;2023-12-14T01:21:32;9.9;69.9
78463;SHT31;67756;51.982;5.648;2023-12-14T01:24:00;9.9;70.1
78463;SHT31;67756;51.982;5.648;2023-12-14T01:26:31;9.9;69.4
78463;SHT31;67756;51.982;5.648;2023-12-14T01:28:59;9.9;69.6
78463;SHT31;67756;51.982;5.648;2023-12-14T01:31:30;9.9;69.0
78463;SHT31;67756;51.982;5.648;2023-12-14T01:33:58;9.8;68.9
78463;SHT31;67756;51.982;5.648;2023-12-14T01:36:27;9.8;69.3
78463;SHT31;67756;51.982;5.648;2023-12-14T01:38:55;9.8;69.3
78463;SHT31;67756;51.982;5.648;2023-12-14T01:41:24;9.7;69.4
78463;SHT31;67756;51.982;5.648;2023-12-14T01:43:54;9.7;69.9
78463;SHT31;67756;51.982;5.648;2023-12-14T01:46:22;9.8;70.2
78463;SHT31;67756;51.982;5.648;2023-12-14T01:48:51;9.8;69.9
78463;SHT31;67756;51.982;5.648;2023-12-14T01:51:20;9.9;69.0
78463;SHT31;67756;51.982;5.648;2023-12-14T01:53:48;9.9;68.7
78463;SHT31;67756;51.982;5.648;2023-12-14T01:56:17;10.0;67.9
78463;SHT31;67756;51.982;5.648;2023-12-14T01:58:45;10.0;68.2
78463;SHT31;67756;51.982;5.648;2023-12-14T02:01:22;10.0;68.6
78463;SHT31;67756;51.982;5.648;2023-12-14T02:03:54;10.0;68.3
78463;SHT31;67756;51.982;5.648;2023-12-14T02:06:23;10.0;68.5
78463;SHT31;67756;51.982;5.648;2023-12-14T02:08:52;10.0;68.2
78463;SHT31;67756;51.982;5.648;2023-12-14T02:11:21;10.0;68.3
78463;SHT31;67756;51.982;5.648;2023-12-14T02:13:49;10.0;68.5
78463;SHT31;67756;51.982;5.648;2023-12-14T02:16:18;10.0;68.4
78463;SHT31;67756;51.982;5.648;2023-12-14T02:18:46;9.9;69.3
78463;SHT31;67756;51.982;5.648;2023-12-14T02:21:15;9.9;68.4
78463;SHT31;67756;51.982;5.648;2023-12-14T02:23:46;9.9;69.2
78463;SHT31;67756;51.982;5.648;2023-12-14T02:26:15;9.9;68.1
78463;SHT31;67756;51.982;5.648;2023-12-14T02:28:45;9.9;67.9
78463;SHT31;67756;51.982;5.648;2023-12-14T02:31:14;9.9;68.4
78463;SHT31;67756;51.982;5.648;2023-12-14T02:33:45;9.9;68.3
78463;SHT31;67756;51.982;5.648;2023-12-14T02:36:14;9.9;68.5
78463;SHT31;67756;51.982;5.648;2023-12-14T02:38:42;9.9;68.5
78463;SHT31;67756;51.982;5.648;2023-12-14T02:41:12;9.8;68.4
78463;SHT31;67756;51.982;5.648;2023-12-14T02:43:40;9.8;67.9
78463;SHT31;67756;51.982;5.648;2023-12-14T02:46:09;9.8;68.5
78463;SHT31;67756;51.982;5.648;2023-12-14T02:48:40;9.8;67.7
78463;SHT31;67756;51.982;5.648;2023-12-14T02:51:11;9.8;68.6
78463;SHT31;67756;51.982;5.648;2023-12-14T02:53:41;9.8;68.1
78463;SHT31;67756;51.982;5.648;2023-12-14T02:56:11;9.8;68.3
78463;SHT31;67756;51.982;5.648;2023-12-14T02:58:39;9.7;68.6
78463;SHT31;67756;51.982;5.648;2023-12-14T03:01:10;9.7;68.9
78463;SHT31;67756;51.982;5.648;2023-12-14T03:03:40;9.7;68.7
78463;SHT31;67756;51.982;5.648;2023-12-14T03:06:08;9.7;69.3
78463;SHT31;67756;51.982;5.648;2023-12-14T03:08:37;9.7;69.4
78463;SHT31;67756;51.982;5.648;2023-12-14T03:11:05;9.7;69.4
78463;SHT31;67756;51.982;5.648;2023-12-14T03:13:34;9.7;69.7
78463;SHT31;67756;51.982;5.648;2023-12-14T03:16:03;9.7;68.9
78463;SHT31;67756;51.982;5.648;2023-12-14T03:18:31;9.8;69.7
78463;SHT31;67756;51.982;5.648;2023-12-14T03:21:00;9.8;69.0
78463;SHT31;67756;51.982;5.648;2023-12-14T03:23:30;9.9;68.7
78463;SHT31;67756;51.982;5.648;2023-12-14T03:25:59;9.9;68.1
78463;SHT31;67756;51.982;5.648;2023-12-14T03:28:27;10.0;67.9
78463;SHT31;67756;51.982;5.648;2023-12-14T03:30:56;10.0;67.3
78463;SHT31;67756;51.982;5.648;2023-12-14T03:33:24;10.0;68.1
78463;SHT31;67756;51.982;5.648;2023-12-14T03:35:53;10.0;68.1
78463;SHT31;67756;51.982;5.648;2023-12-14T03:38:22;9.9;67.7
78463;SHT31;67756;51.982;5.648;2023-12-14T03:40:52;9.9;67.7
78463;SHT31;67756;51.982;5.648;2023-12-14T03:43:21;9.9;68.0
78463;SHT31;67756;51.982;5.648;2023-12-14T03:45:50;9.9;67.6
78463;SHT31;67756;51.982;5.648;2023-12-14T03:48:18;9.9;68.2
78463;SHT31;67756;51.982;5.648;2023-12-14T03:50:47;9.9;68.0
78463;SHT31;67756;51.982;5.648;2023-12-14T03:53:15;10.0;67.8
78463;SHT31;67756;51.982;5.648;2023-12-14T03:55:44;10.0;67.3
78463;SHT31;67756;51.982;5.648;2023-12-14T03:58:13;10.0;67.9
78463;SHT31;67756;51.982;5.648;2023-12-14T04:00:41;10.0;67.4
78463;SHT31;67756;51.982;5.648;2023-12-14T04:03:10;10.1;67.7
78463;SHT31;67756;51.982;5.648;2023-12-14T04:05:40;10.1;67.6
78463;SHT31;67756;51.982;5.648;2023-12-14T04:08:10;10.1;67.1
78463;SHT31;67756;51.982;5.648;2023-12-14T04:10:39;10.1;66.6
78463;SHT31;67756;51.982;5.648;2023-12-14T04:13:07;10.1;66.6
78463;SHT31;67756;51.982;5.648;2023-12-14T04:15:36;10.1;66.8
78463;SHT31;67756;51.982;5.648;2023-12-14T04:18:06;10.1;66.6
78463;SHT31;67756;51.982;5.648;2023-12-14T04:20:35;10.1;66.5
78463;SHT31;67756;51.982;5.648;2023-12-14T04:23:03;10.1;66.7
78463;SHT31;67756;51.982;5.648;2023-12-14T04:25:32;10.0;66.8
78463;SHT31;67756;51.982;5.648;2023-12-14T04:28:01;10.0;67.1
78463;SHT31;67756;51.982;5.648;2023-12-14T04:30:30;10.0;67.0
78463;SHT31;67756;51.982;5.648;2023-12-14T04:32:58;10.0;66.6
78463;SHT31;67756;51.982;5.648;2023-12-14T04:35:27;9.9;67.4
78463;SHT31;67756;51.982;5.648;2023-12-14T04:37:55;9.9;66.9
78463;SHT31;67756;51.982;5.648;2023-12-14T04:40:26;9.9;67.2
78463;SHT31;67756;51.982;5.648;2023-12-14T04:42:54;9.8;66.7
78463;SHT31;67756;51.982;5.648;2023-12-14T04:45:22;9.8;66.8
78463;SHT31;67756;51.982;5.648;2023-12-14T04:47:51;9.8;66.8
78463;SHT31;67756;51.982;5.648;2023-12-14T04:50:20;9.8;66.9
78463;SHT31;67756;51.982;5.648;2023-12-14T04:52:48;9.8;67.6
78463;SHT31;67756;51.982;5.648;2023-12-14T04:55:17;9.7;66.6
78463;SHT31;67756;51.982;5.648;2023-12-14T04:57:46;9.7;67.6
78463;SHT31;67756;51.982;5.648;2023-12-14T05:00:15;9.7;67.6
78463;SHT31;67756;51.982;5.648;2023-12-14T05:02:48;9.7;67.5
78463;SHT31;67756;51.982;5.648;2023-12-14T05:05:18;9.7;67.6
78463;SHT31;67756;51.982;5.648;2023-12-14T05:07:47;9.7;67.9
78463;SHT31;67756;51.982;5.648;2023-12-14T05:10:16;9.6;67.9
78463;SHT31;67756;51.982;5.648;2023-12-14T05:12:45;9.6;67.7
78463;SHT31;67756;51.982;5.648;2023-12-14T05:15:13;9.6;68.1
78463;SHT31;67756;51.982;5.648;2023-12-14T05:17:42;9.6;67.4
78463;SHT31;67756;51.982;5.648;2023-12-14T05:20:11;9.6;67.5
78463;SHT31;67756;51.982;5.648;2023-12-14T05:22:39;9.6;67.4
78463;SHT31;67756;51.982;5.648;2023-12-14T05:25:08;9.6;68.2
78463;SHT31;67756;51.982;5.648;2023-12-14T05:27:37;9.6;67.8
78463;SHT31;67756;51.982;5.648;2023-12-14T05:30:07;9.7;67.3
78463;SHT31;67756;51.982;5.648;2023-12-14T05:32:36;9.7;67.3
78463;SHT31;67756;51.982;5.648;2023-12-14T05:35:05;9.7;67.9
78463;SHT31;67756;51.982;5.648;2023-12-14T05:37:35;9.7;67.3
78463;SHT31;67756;51.982;5.648;2023-12-14T05:40:04;9.7;67.8
78463;SHT31;67756;51.982;5.648;2023-12-14T05:42:35;9.7;67.4
78463;SHT31;67756;51.982;5.648;2023-12-14T05:45:04;9.7;67.5
78463;SHT31;67756;51.982;5.648;2023-12-14T05:47:33;9.7;67.0
78463;SHT31;67756;51.982;5.648;2023-12-14T05:50:03;9.7;67.8
78463;SHT31;67756;51.982;5.648;2023-12-14T05:52:32;9.7;68.1
78463;SHT31;67756;51.982;5.648;2023-12-14T05:55:06;9.8;68.0
78463;SHT31;67756;51.982;5.648;2023-12-14T05:57:40;9.9;67.5
78463;SHT31;67756;51.982;5.648;2023-12-14T06:00:09;10.0;66.4
78463;SHT31;67756;51.982;5.648;2023-12-14T06:02:38;10.0;66.5
78463;SHT31;67756;51.982;5.648;2023-12-14T06:05:10;10.0;66.0
78463;SHT31;67756;51.982;5.648;2023-12-14T06:07:39;10.1;66.1
78463;SHT31;67756;51.982;5.648;2023-12-14T06:10:12;10.1;66.4
78463;SHT31;67756;51.982;5.648;2023-12-14T06:12:40;10.2;65.8
78463;SHT31;67756;51.982;5.648;2023-12-14T06:15:11;10.2;65.8
78463;SHT31;67756;51.982;5.648;2023-12-14T06:17:40;10.1;65.0
78463;SHT31;67756;51.982;5.648;2023-12-14T06:20:09;10.1;65.7
78463;SHT31;67756;51.982;5.648;2023-12-14T06:22:38;10.1;65.2
78463;SHT31;67756;51.982;5.648;2023-12-14T06:25:08;10.1;64.7
78463;SHT31;67756;51.982;5.648;2023-12-14T06:27:37;10.0;65.2
78463;SHT31;67756;51.982;5.648;2023-12-14T06:30:06;10.0;65.1
78463;SHT31;67756;51.982;5.648;2023-12-14T06:32:36;9.9;65.5
78463;SHT31;67756;51.982;5.648;2023-12-14T06:35:05;9.9;66.3
78463;SHT31;67756;51.982;5.648;2023-12-14T06:37:33;9.8;65.6
78463;SHT31;67756;51.982;5.648;2023-12-14T06:40:02;9.8;65.1
78463;SHT31;67756;51.982;5.648;2023-12-14T06:42:31;9.8;65.2
78463;SHT31;67756;51.982;5.648;2023-12-14T06:45:00;9.7;65.4
78463;SHT31;67756;51.982;5.648;2023-12-14T06:47:29;9.7;65.5
78463;SHT31;67756;51.982;5.648;2023-12-14T06:49:57;9.6;66.1
78463;SHT31;67756;51.982;5.648;2023-12-14T06:52:26;9.6;65.4
78463;SHT31;67756;51.982;5.648;2023-12-14T06:54:54;9.6;64.9
78463;SHT31;67756;51.982;5.648;2023-12-14T06:57:22;9.6;65.2
78463;SHT31;67756;51.982;5.648;2023-12-14T06:59:51;9.6;64.9
78463;SHT31;67756;51.982;5.648;2023-12-14T07:02:19;9.5;64.8
78463;SHT31;67756;51.982;5.648;2023-12-14T07:04:49;9.5;65.7
78463;SHT31;67756;51.982;5.648;2023-12-14T07:07:17;9.5;65.8
78463;SHT31;67756;51.982;5.648;2023-12-14T07:09:46;9.5;65.6
78463;SHT31;67756;51.982;5.648;2023-12-14T07:12:16;9.5;65.8
78463;SHT31;67756;51.982;5.648;2023-12-14T07:14:45;9.5;65.8
78463;SHT31;67756;51.982;5.648;2023-12-14T07:17:14;9.5;66.1
78463;SHT31;67756;51.982;5.648;2023-12-14T07:19:42;9.5;65.2
78463;SHT31;67756;51.982;5.648;2023-12-14T07:22:11;9.5;65.8
78463;SHT31;67756;51.982;5.648;2023-12-14T07:24:39;9.4;65.1
78463;SHT31;67756;51.982;5.648;2023-12-14T07:27:08;9.4;65.6
78463;SHT31;67756;51.982;5.648;2023-12-14T07:29:36;9.4;65.2
78463;SHT31;67756;51.982;5.648;2023-12-14T07:32:05;9.4;65.2
78463;SHT31;67756;51.982;5.648;2023-12-14T07:34:34;9.3;65.6
78463;SHT31;67756;51.982;5.648;2023-12-14T07:37:02;9.3;65.5
78463;SHT31;67756;51.982;5.648;2023-12-14T07:39:32;9.3;66.0
78463;SHT31;67756;51.982;5.648;2023-12-14T07:42:01;9.3;65.7
78463;SHT31;67756;51.982;5.648;2023-12-14T07:44:29;9.2;64.4
78463;SHT31;67756;51.982;5.648;2023-12-14T07:47:00;9.2;64.5
78463;SHT31;67756;51.982;5.648;2023-12-14T07:49:28;9.2;65.4
78463;SHT31;67756;51.982;5.648;2023-12-14T07:51:57;9.2;65.2
78463;SHT31;67756;51.982;5.648;2023-12-14T07:54:25;9.2;64.4
78463;SHT31;67756;51.982;5.648;2023-12-14T07:56:55;9.1;65.9
78463;SHT31;67756;51.982;5.648;2023-12-14T07:59:23;9.1;65.4
78463;SHT31;67756;51.982;5.648;2023-12-14T08:01:52;9.2;66.7
78463;SHT31;67756;51.982;5.648;2023-12-14T08:04:21;9.2;66.4
78463;SHT31;67756;51.982;5.648;2023-12-14T08:06:49;9.3;65.6
78463;SHT31;67756;51.982;5.648;2023-12-14T08:09:18;9.3;65.7
78463;SHT31;67756;51.982;5.648;2023-12-14T08:11:47;9.4;65.2
78463;SHT31;67756;51.982;5.648;2023-12-14T08:14:16;9.4;65.1
78463;SHT31;67756;51.982;5.648;2023-12-14T08:16:45;9.4;65.5
78463;SHT31;67756;51.982;5.648;2023-12-14T08:19:14;9.5;65.1
78463;SHT31;67756;51.982;5.648;2023-12-14T08:21:42;9.5;64.1
78463;SHT31;67756;51.982;5.648;2023-12-14T08:24:11;9.6;64.1
78463;SHT31;67756;51.982;5.648;2023-12-14T08:26:39;9.6;63.6
78463;SHT31;67756;51.982;5.648;2023-12-14T08:29:08;9.6;64.5
78463;SHT31;67756;51.982;5.648;2023-12-14T08:31:36;9.6;63.9
78463;SHT31;67756;51.982;5.648;2023-12-14T08:34:05;9.7;62.9
78463;SHT31;67756;51.982;5.648;2023-12-14T08:36:33;9.7;63.0
78463;SHT31;67756;51.982;5.648;2023-12-14T08:39:02;9.7;62.5
78463;SHT31;67756;51.982;5.648;2023-12-14T08:41:31;9.7;62.3
78463;SHT31;67756;51.982;5.648;2023-12-14T08:43:59;9.6;61.7
78463;SHT31;67756;51.982;5.648;2023-12-14T08:46:28;9.6;61.5
78463;SHT31;67756;51.982;5.648;2023-12-14T08:48:56;9.6;61.6
78463;SHT31;67756;51.982;5.648;2023-12-14T08:51:25;9.6;62.0
78463;SHT31;67756;51.982;5.648;2023-12-14T08:53:53;9.6;62.1
78463;SHT31;67756;51.982;5.648;2023-12-14T08:56:22;9.6;62.3
78463;SHT31;67756;51.982;5.648;2023-12-14T08:58:51;9.5;62.0
78463;SHT31;67756;51.982;5.648;2023-12-14T09:01:22;9.5;62.6
78463;SHT31;67756;51.982;5.648;2023-12-14T09:03:51;9.5;62.2
78463;SHT31;67756;51.982;5.648;2023-12-14T09:06:20;9.5;62.7
78463;SHT31;67756;51.982;5.648;2023-12-14T09:08:48;9.4;62.0
78463;SHT31;67756;51.982;5.648;2023-12-14T09:11:17;9.4;63.9
78463;SHT31;67756;51.982;5.648;2023-12-14T09:13:45;9.4;64.3
78463;SHT31;67756;51.982;5.648;2023-12-14T09:16:14;9.4;63.9
78463;SHT31;67756;51.982;5.648;2023-12-14T09:18:42;9.4;63.1
78463;SHT31;67756;51.982;5.648;2023-12-14T09:21:11;9.4;64.2
78463;SHT31;67756;51.982;5.648;2023-12-14T09:23:41;9.4;63.8
78463;SHT31;67756;51.982;5.648;2023-12-14T09:26:09;9.4;64.1
78463;SHT31;67756;51.982;5.648;2023-12-14T09:28:39;9.4;64.3
78463;SHT31;67756;51.982;5.648;2023-12-14T09:31:09;9.4;64.2
78463;SHT31;67756;51.982;5.648;2023-12-14T09:33:37;9.4;64.1
78463;SHT31;67756;51.982;5.648;2023-12-14T09:36:07;9.4;63.9
78463;SHT31;67756;51.982;5.648;2023-12-14T09:38:35;9.4;63.1
78463;SHT31;67756;51.982;5.648;2023-12-14T09:41:04;9.4;63.4
78463;SHT31;67756;51.982;5.648;2023-12-14T09:43:33;9.4;63.7
78463;SHT31;67756;51.982;5.648;2023-12-14T09:46:03;9.4;63.6
78463;SHT31;67756;51.982;5.648;2023-12-14T09:48:32;9.4;63.0
78463;SHT31;67756;51.982;5.648;2023-12-14T09:51:01;9.4;62.0
78463;SHT31;67756;51.982;5.648;2023-12-14T09:53:29;9.4;62.9
78463;SHT31;67756;51.982;5.648;2023-12-14T09:55:58;9.4;63.4
78463;SHT31;67756;51.982;5.648;2023-12-14T09:58:26;9.4;63.8
78463;SHT31;67756;51.982;5.648;2023-12-14T10:00:55;9.4;62.8
78463;SHT31;67756;51.982;5.648;2023-12-14T10:03:27;9.4;64.1
78463;SHT31;67756;51.982;5.648;2023-12-14T10:05:57;9.4;64.0
78463;SHT31;67756;51.982;5.648;2023-12-14T10:08:29;9.4;63.6
78463;SHT31;67756;51.982;5.648;2023-12-14T10:10:58;9.4;63.0
78463;SHT31;67756;51.982;5.648;2023-12-14T10:13:38;9.4;63.3
78463;SHT31;67756;51.982;5.648;2023-12-14T10:16:09;9.5;63.8
78463;SHT31;67756;51.982;5.648;2023-12-14T10:18:37;9.5;63.4
78463;SHT31;67756;51.982;5.648;2023-12-14T10:21:07;9.6;63.1
78463;SHT31;67756;51.982;5.648;2023-12-14T10:23:38;9.7;62.5
78463;SHT31;67756;51.982;5.648;2023-12-14T10:26:08;9.7;62.5
78463;SHT31;67756;51.982;5.648;2023-12-14T10:28:44;9.8;63.2
78463;SHT31;67756;51.982;5.648;2023-12-14T10:31:12;9.9;63.0
78463;SHT31;67756;51.982;5.648;2023-12-14T10:33:41;9.9;62.2
78463;SHT31;67756;51.982;5.648;2023-12-14T10:36:13;10.0;62.5
78463;SHT31;67756;51.982;5.648;2023-12-14T10:38:44;10.0;62.5
78463;SHT31;67756;51.982;5.648;2023-12-14T10:41:17;10.0;62.8
78463;SHT31;67756;51.982;5.648;2023-12-14T10:43:48;10.0;63.1
78463;SHT31;67756;51.982;5.648;2023-12-14T10:46:19;10.1;62.4
78463;SHT31;67756;51.982;5.648;2023-12-14T10:48:50;10.1;61.5
78463;SHT31;67756;51.982;5.648;2023-12-14T10:51:21;10.1;62.2
78463;SHT31;67756;51.982;5.648;2023-12-14T10:53:50;10.1;60.8
78463;SHT31;67756;51.982;5.648;2023-12-14T10:56:20;10.0;62.2
78463;SHT31;67756;51.982;5.648;2023-12-14T10:58:52;10.0;61.1
78463;SHT31;67756;51.982;5.648;2023-12-14T11:01:22;10.0;61.1
78463;SHT31;67756;51.982;5.648;2023-12-14T11:03:54;10.0;61.9
78463;SHT31;67756;51.982;5.648;2023-12-14T11:06:29;10.0;62.5
78463;SHT31;67756;51.982;5.648;2023-12-14T11:09:00;9.9;62.0
78463;SHT31;67756;51.982;5.648;2023-12-14T11:11:42;9.9;61.5
78463;SHT31;67756;51.982;5.648;2023-12-14T11:14:12;9.9;61.5
78463;SHT31;67756;51.982;5.648;2023-12-14T11:16:45;9.9;62.2
78463;SHT31;67756;51.982;5.648;2023-12-14T11:19:26;10.0;62.4
78463;SHT31;67756;51.982;5.648;2023-12-14T11:22:12;10.1;62.5
78463;SHT31;67756;51.982;5.648;2023-12-14T11:24:54;10.1;61.9
78463;SHT31;67756;51.982;5.648;2023-12-14T11:27:29;10.1;62.1
78463;SHT31;67756;51.982;5.648;2023-12-14T11:29:58;10.1;61.7
78463;SHT31;67756;51.982;5.648;2023-12-14T11:32:29;10.1;62.8
78463;SHT31;67756;51.982;5.648;2023-12-14T11:34:58;10.1;62.1
78463;SHT31;67756;51.982;5.648;2023-12-14T11:37:27;10.1;61.9
78463;SHT31;67756;51.982;5.648;2023-12-14T11:39:55;10.1;59.9
78463;SHT31;67756;51.982;5.648;2023-12-14T11:42:24;10.0;61.2
78463;SHT31;67756;51.982;5.648;2023-12-14T11:44:58;10.0;60.5
78463;SHT31;67756;51.982;5.648;2023-12-14T11:47:26;9.9;60.9
78463;SHT31;67756;51.982;5.648;2023-12-14T11:49:55;9.9;62.0
78463;SHT31;67756;51.982;5.648;2023-12-14T11:52:23;9.9;63.7
78463;SHT31;67756;51.982;5.648;2023-12-14T11:54:52;9.9;63.2
78463;SHT31;67756;51.982;5.648;2023-12-14T11:57:21;9.9;63.7
78463;SHT31;67756;51.982;5.648;2023-12-14T11:59:50;9.9;62.4
78463;SHT31;67756;51.982;5.648;2023-12-14T12:02:25;10.0;63.8
78463;SHT31;67756;51.982;5.648;2023-12-14T12:04:53;10.1;64.3
78463;SHT31;67756;51.982;5.648;2023-12-14T12:07:22;10.3;62.5
78463;SHT31;67756;51.982;5.648;2023-12-14T12:09:51;10.5;61.7
78463;SHT31;67756;51.982;5.648;2023-12-14T12:12:23;10.6;59.8
78463;SHT31;67756;51.982;5.648;2023-12-14T12:14:51;10.8;60.0
78463;SHT31;67756;51.982;5.648;2023-12-14T12:17:20;10.9;59.4
78463;SHT31;67756;51.982;5.648;2023-12-14T12:19:49;11.0;59.3
78463;SHT31;67756;51.982;5.648;2023-12-14T12:22:17;11.1;59.3
78463;SHT31;67756;51.982;5.648;2023-12-14T12:24:46;11.3;59.0
78463;SHT31;67756;51.982;5.648;2023-12-14T12:27:14;11.4;57.9
78463;SHT31;67756;51.982;5.648;2023-12-14T12:29:43;11.5;58.7
78463;SHT31;67756;51.982;5.648;2023-12-14T12:32:11;11.6;56.7
78463;SHT31;67756;51.982;5.648;2023-12-14T12:34:40;11.7;54.9
78463;SHT31;67756;51.982;5.648;2023-12-14T12:37:08;11.6;55.0
78463;SHT31;67756;51.982;5.648;2023-12-14T12:39:37;11.7;55.8
78463;SHT31;67756;51.982;5.648;2023-12-14T12:42:06;11.6;55.8
78463;SHT31;67756;51.982;5.648;2023-12-14T12:44:34;11.6;54.6
78463;SHT31;67756;51.982;5.648;2023-12-14T12:47:04;11.5;55.6
78463;SHT31;67756;51.982;5.648;2023-12-14T12:49:32;11.4;55.7
78463;SHT31;67756;51.982;5.648;2023-12-14T12:52:01;11.4;55.8
78463;SHT31;67756;51.982;5.648;2023-12-14T12:54:31;11.3;55.3
78463;SHT31;67756;51.982;5.648;2023-12-14T12:57:00;11.2;55.4
78463;SHT31;67756;51.982;5.648;2023-12-14T12:59:29;11.1;57.5
78463;SHT31;67756;51.982;5.648;2023-12-14T13:01:58;11.0;58.0
78463;SHT31;67756;51.982;5.648;2023-12-14T13:04:28;10.9;57.9
78463;SHT31;67756;51.982;5.648;2023-12-14T13:06:58;10.9;58.5
78463;SHT31;67756;51.982;5.648;2023-12-14T13:09:28;10.8;58.7
78463;SHT31;67756;51.982;5.648;2023-12-14T13:11:57;10.8;58.3
78463;SHT31;67756;51.982;5.648;2023-12-14T13:14:26;10.8;57.5
78463;SHT31;67756;51.982;5.648;2023-12-14T13:16:54;10.7;58.2
78463;SHT31;67756;51.982;5.648;2023-12-14T13:19:24;10.7;59.3
78463;SHT31;67756;51.982;5.648;2023-12-14T13:21:54;10.7;59.6
78463;SHT31;67756;51.982;5.648;2023-12-14T13:24:25;10.6;60.1
78463;SHT31;67756;51.982;5.648;2023-12-14T13:26:54;10.6;59.9
78463;SHT31;67756;51.982;5.648;2023-12-14T13:29:23;10.6;59.1
78463;SHT31;67756;51.982;5.648;2023-12-14T13:31:51;10.6;60.3
78463;SHT31;67756;51.982;5.648;2023-12-14T13:34:20;10.6;60.4
78463;SHT31;67756;51.982;5.648;2023-12-14T13:36:49;10.6;60.2
78463;SHT31;67756;51.982;5.648;2023-12-14T13:39:17;10.6;61.0
78463;SHT31;67756;51.982;5.648;2023-12-14T13:41:46;10.6;60.8
78463;SHT31;67756;51.982;5.648;2023-12-14T13:44:14;10.6;60.4
78463;SHT31;67756;51.982;5.648;2023-12-14T13:46:43;10.6;60.8
78463;SHT31;67756;51.982;5.648;2023-12-14T13:49:11;10.6;60.7
78463;SHT31;67756;51.982;5.648;2023-12-14T13:51:40;10.6;61.3
78463;SHT31;67756;51.982;5.648;2023-12-14T13:54:08;10.6;61.8
78463;SHT31;67756;51.982;5.648;2023-12-14T13:56:37;10.5;61.5
78463;SHT31;67756;51.982;5.648;2023-12-14T13:59:07;10.6;61.9
78463;SHT31;67756;51.982;5.648;2023-12-14T14:01:35;10.6;61.7
78463;SHT31;67756;51.982;5.648;2023-12-14T14:04:04;10.6;62.3
78463;SHT31;67756;51.982;5.648;2023-12-14T14:06:33;10.6;61.2
78463;SHT31;67756;51.982;5.648;2023-12-14T14:09:02;10.6;61.4
78463;SHT31;67756;51.982;5.648;2023-12-14T14:11:33;10.7;60.7
78463;SHT31;67756;51.982;5.648;2023-12-14T14:14:03;10.8;60.3
78463;SHT31;67756;51.982;5.648;2023-12-14T14:16:31;10.9;60.2
78463;SHT31;67756;51.982;5.648;2023-12-14T14:19:00;10.9;60.5
78463;SHT31;67756;51.982;5.648;2023-12-14T14:21:29;10.9;59.7
78463;SHT31;67756;51.982;5.648;2023-12-14T14:23:57;10.8;60.0
78463;SHT31;67756;51.982;5.648;2023-12-14T14:26:26;10.8;60.4
78463;SHT31;67756;51.982;5.648;2023-12-14T14:28:56;10.8;60.1
78463;SHT31;67756;51.982;5.648;2023-12-14T14:31:28;10.7;60.5
78463;SHT31;67756;51.982;5.648;2023-12-14T14:33:59;10.7;60.8
78463;SHT31;67756;51.982;5.648;2023-12-14T14:36:27;10.6;60.8
78463;SHT31;67756;51.982;5.648;2023-12-14T14:38:56;10.6;61.2
78463;SHT31;67756;51.982;5.648;2023-12-14T14:41:24;10.6;60.5
78463;SHT31;67756;51.982;5.648;2023-12-14T14:43:53;10.6;61.3
78463;SHT31;67756;51.982;5.648;2023-12-14T14:46:23;10.5;61.1
78463;SHT31;67756;51.982;5.648;2023-12-14T14:48:52;10.5;60.9
78463;SHT31;67756;51.982;5.648;2023-12-14T14:51:20;10.4;60.2
78463;SHT31;67756;51.982;5.648;2023-12-14T14:53:51;10.4;61.5
78463;SHT31;67756;51.982;5.648;2023-12-14T14:56:20;10.4;61.5
78463;SHT31;67756;51.982;5.648;2023-12-14T14:58:49;10.4;62.1
78463;SHT31;67756;51.982;5.648;2023-12-14T15:01:20;10.4;62.3
78463;SHT31;67756;51.982;5.648;2023-12-14T15:03:49;10.4;62.4
78463;SHT31;67756;51.982;5.648;2023-12-14T15:06:18;10.4;62.2
78463;SHT31;67756;51.982;5.648;2023-12-14T15:08:49;10.4;62.0
78463;SHT31;67756;51.982;5.648;2023-12-14T15:11:17;10.5;62.0
78463;SHT31;67756;51.982;5.648;2023-12-14T15:13:46;10.5;61.6
78463;SHT31;67756;51.982;5.648;2023-12-14T15:16:15;10.5;61.4
78463;SHT31;67756;51.982;5.648;2023-12-14T15:18:44;10.5;60.9
78463;SHT31;67756;51.982;5.648;2023-12-14T15:21:13;10.5;60.9
78463;SHT31;67756;51.982;5.648;2023-12-14T15:23:41;10.5;61.4
78463;SHT31;67756;51.982;5.648;2023-12-14T15:26:13;10.5;60.7
78463;SHT31;67756;51.982;5.648;2023-12-14T15:28:44;10.4;60.5
78463;SHT31;67756;51.982;5.648;2023-12-14T15:31:14;10.4;60.6
78463;SHT31;67756;51.982;5.648;2023-12-14T15:33:43;10.3;61.2
78463;SHT31;67756;51.982;5.648;2023-12-14T15:36:13;10.2;61.6
78463;SHT31;67756;51.982;5.648;2023-12-14T15:38:43;10.1;62.7
78463;SHT31;67756;51.982;5.648;2023-12-14T15:41:13;10.1;63.6
78463;SHT31;67756;51.982;5.648;2023-12-14T15:43:41;10.1;64.1
78463;SHT31;67756;51.982;5.648;2023-12-14T15:46:10;10.1;64.3
78463;SHT31;67756;51.982;5.648;2023-12-14T15:48:40;10.2;63.0
78463;SHT31;67756;51.982;5.648;2023-12-14T15:51:10;10.2;63.3
78463;SHT31;67756;51.982;5.648;2023-12-14T15:53:40;10.2;63.3
78463;SHT31;67756;51.982;5.648;2023-12-14T15:56:09;10.2;64.4
78463;SHT31;67756;51.982;5.648;2023-12-14T15:58:37;10.2;63.4
78463;SHT31;67756;51.982;5.648;2023-12-14T16:01:06;10.2;63.0
78463;SHT31;67756;51.982;5.648;2023-12-14T16:03:36;10.2;62.3
78463;SHT31;67756;51.982;5.648;2023-12-14T16:06:05;10.2;62.2
78463;SHT31;67756;51.982;5.648;2023-12-14T16:08:34;10.2;62.8
78463;SHT31;67756;51.982;5.648;2023-12-14T16:11:03;10.2;62.4
78463;SHT31;67756;51.982;5.648;2023-12-14T16:13:32;10.2;62.3
78463;SHT31;67756;51.982;5.648;2023-12-14T16:16:01;10.1;62.1
78463;SHT31;67756;51.982;5.648;2023-12-14T16:18:29;10.1;62.8
78463;SHT31;67756;51.982;5.648;2023-12-14T16:20:58;10.1;62.5
78463;SHT31;67756;51.982;5.648;2023-12-14T16:23:27;10.1;62.7